createdAt,value
2018-06-23T01:22:09.193Z,99.90
2018-06-23T01:24:37.678Z,99.90
2018-06-23T01:27:06.042Z,99.90
2018-06-23T01:29:34.389Z,99.90
2018-06-23T01:32:02.767Z,99.90
2018-06-23T01:34:31.174Z,99.90
2018-06-23T01:36:59.535Z,99.90
2018-06-23T01:39:27.867Z,99.90
2018-06-23T01:41:56.349Z,99.90
2018-06-23T01:44:24.789Z,99.90
2018-06-23T01:46:53.265Z,99.90
2018-06-23T01:49:21.629Z,99.90
2018-06-23T01:51:49.955Z,99.90
2018-06-23T01:54:18.296Z,99.90
2018-06-23T01:56:46.666Z,99.90
2018-06-23T01:59:15.026Z,99.90
2018-06-23T02:01:43.465Z,99.90
2018-06-23T02:04:11.809Z,99.90
2018-06-23T02:06:40.184Z,99.90
2018-06-23T02:09:09.671Z,99.90
2018-06-23T02:11:38.073Z,99.90
2018-06-23T02:14:11.814Z,99.90
2018-06-23T02:16:45.549Z,99.90
2018-06-23T02:21:20.329Z,99.90
2018-06-23T02:23:54.022Z,99.90
2018-06-23T02:26:27.609Z,99.90
2018-06-23T02:29:01.285Z,99.90
2018-06-23T02:31:34.907Z,99.90
2018-06-23T02:34:08.554Z,99.90
2018-06-23T02:36:36.902Z,99.90
2018-06-23T02:39:10.204Z,99.90
2018-06-23T02:41:38.582Z,99.90
2018-06-23T02:44:07.046Z,99.90
2018-06-23T02:46:35.478Z,99.90
2018-06-23T02:49:03.819Z,99.90
2018-06-23T02:51:32.209Z,99.90
2018-06-23T02:54:00.646Z,99.90
2018-06-23T02:56:28.981Z,99.90
2018-06-23T02:58:57.369Z,99.90
2018-06-23T03:01:25.768Z,99.90
2018-06-23T03:03:54.123Z,99.90
2018-06-23T03:06:22.470Z,99.90
2018-06-23T03:08:50.816Z,99.90
2018-06-23T03:11:19.239Z,99.90
2018-06-23T03:13:47.780Z,99.90
2018-06-23T03:16:16.161Z,99.90
2018-06-23T03:18:44.470Z,99.90
2018-06-23T03:21:12.832Z,99.90
2018-06-23T03:23:41.359Z,99.90
2018-06-23T03:26:09.813Z,99.90
2018-06-23T03:28:38.164Z,99.90
2018-06-23T03:31:06.560Z,99.90
2018-06-23T03:33:34.959Z,99.90
2018-06-23T03:36:03.318Z,99.90
2018-06-23T03:38:31.668Z,99.90
2018-06-23T03:41:00.035Z,99.90
2018-06-23T03:43:28.369Z,99.90
2018-06-23T03:45:56.726Z,99.90
2018-06-23T03:48:25.115Z,99.90
2018-06-23T03:50:53.474Z,99.90
2018-06-23T03:53:21.795Z,99.90
2018-06-23T03:55:50.192Z,99.90
2018-06-23T03:58:18.517Z,99.90
2018-06-23T04:00:52.136Z,99.90
2018-06-23T04:03:20.483Z,99.90
2018-06-23T04:05:48.933Z,99.90
2018-06-23T04:08:17.681Z,99.90
2018-06-23T04:10:46.039Z,99.90
2018-06-23T04:13:14.369Z,99.90
2018-06-23T04:15:42.899Z,99.90
2018-06-23T04:18:11.226Z,99.90
2018-06-23T04:20:39.661Z,99.90
2018-06-23T04:23:08.082Z,99.90
2018-06-23T04:25:36.459Z,99.90
2018-06-23T04:28:04.810Z,99.90
2018-06-23T04:30:33.156Z,99.90
2018-06-23T04:33:01.538Z,99.90
2018-06-23T04:35:29.938Z,99.90
2018-06-23T04:37:58.350Z,99.90
2018-06-23T04:40:26.732Z,99.90
2018-06-23T04:42:55.151Z,99.90
2018-06-23T04:45:23.706Z,99.90
2018-06-23T04:47:52.122Z,99.90
2018-06-23T04:50:20.527Z,99.90
2018-06-23T04:52:48.853Z,99.90
2018-06-23T04:55:17.405Z,99.90
2018-06-23T04:57:46.091Z,99.90
2018-06-23T05:00:14.475Z,99.90
2018-06-23T05:02:42.955Z,99.90
2018-06-23T05:05:11.356Z,99.90
2018-06-23T05:07:39.758Z,99.90
2018-06-23T05:10:08.195Z,99.90
2018-06-23T05:12:36.602Z,99.90
2018-06-23T05:15:05.055Z,99.90
2018-06-23T05:17:33.720Z,99.90
2018-06-23T05:20:02.334Z,99.90
2018-06-23T05:22:30.799Z,99.90
2018-06-23T05:24:59.248Z,99.90
2018-06-23T05:27:27.683Z,99.90
2018-06-23T05:29:56.100Z,99.90
2018-06-23T05:32:24.687Z,99.90
2018-06-23T05:34:53.195Z,99.90
2018-06-23T05:37:21.937Z,99.90
2018-06-23T05:39:50.414Z,99.90
2018-06-23T05:42:18.855Z,99.90
2018-06-23T05:44:47.245Z,99.90
2018-06-23T05:47:15.573Z,99.90
2018-06-23T05:49:44.029Z,99.90
2018-06-23T05:52:12.510Z,99.90
2018-06-23T05:54:41.000Z,99.90
2018-06-23T05:57:09.398Z,99.90
2018-06-23T05:59:37.769Z,99.90
2018-06-23T06:02:06.334Z,99.90
2018-06-23T06:04:34.756Z,99.90
2018-06-23T06:07:03.145Z,99.90
2018-06-23T06:09:31.682Z,99.90
2018-06-23T06:12:00.279Z,99.90
2018-06-23T06:14:28.702Z,99.90
2018-06-23T06:17:30.701Z,99.90
2018-06-23T06:20:00.439Z,99.90
2018-06-23T06:22:30.350Z,99.60
2018-06-23T06:24:58.749Z,99.40
2018-06-23T06:27:27.145Z,99.30
2018-06-23T06:32:24.574Z,99.90
2018-06-23T06:34:53.041Z,99.90
2018-06-23T06:37:21.433Z,99.90
2018-06-23T06:42:51.178Z,99.90
2018-06-23T06:47:48.645Z,99.90
2018-06-23T06:50:17.051Z,99.90
2018-06-23T06:52:45.463Z,99.90
2018-06-23T06:55:14.487Z,99.90
2018-06-23T06:57:43.049Z,99.70
2018-06-23T07:00:11.430Z,99.90
2018-06-23T07:02:39.839Z,99.90
2018-06-23T07:05:08.239Z,99.90
2018-06-23T07:07:36.578Z,99.90
2018-06-23T07:10:04.995Z,99.90
2018-06-23T07:12:33.392Z,99.90
2018-06-23T07:15:01.794Z,99.90
2018-06-23T07:17:30.504Z,99.90
2018-06-23T07:19:58.851Z,99.60
2018-06-23T07:22:27.604Z,99.60
2018-06-23T07:24:57.914Z,99.30
2018-06-23T07:27:26.663Z,99.90
2018-06-23T07:29:56.281Z,99.90
2018-06-23T07:32:25.068Z,99.80
2018-06-23T07:34:53.971Z,99.90
2018-06-23T07:37:22.977Z,99.90
2018-06-23T07:39:55.893Z,99.90
2018-06-23T07:42:24.505Z,99.90
2018-06-23T07:44:55.572Z,99.90
2018-06-23T07:47:30.394Z,99.90
2018-06-23T07:49:59.265Z,99.90
2018-06-23T07:52:29.125Z,99.90
2018-06-23T07:55:00.608Z,99.90
2018-06-23T07:57:40.215Z,99.90
2018-06-23T08:00:10.627Z,99.90
2018-06-23T08:02:40.397Z,99.90
2018-06-23T08:05:12.044Z,99.90
2018-06-23T08:07:41.622Z,99.90
2018-06-23T08:10:11.459Z,99.90
2018-06-23T08:15:38.604Z,99.90
2018-06-23T08:18:08.408Z,99.90
2018-06-23T08:20:40.224Z,99.90
2018-06-23T08:23:11.975Z,99.90
2018-06-23T08:25:40.603Z,99.90
2018-06-23T08:28:09.153Z,99.90
2018-06-23T08:30:38.596Z,99.90
2018-06-23T08:33:07.237Z,99.90
2018-06-23T08:35:36.799Z,99.90
2018-06-23T08:38:05.742Z,99.90
2018-06-23T08:40:34.216Z,99.90
2018-06-23T08:43:02.730Z,99.90
2018-06-23T08:45:31.518Z,99.90
2018-06-23T08:48:00.364Z,99.90
2018-06-23T08:50:29.618Z,99.90
2018-06-23T08:53:01.393Z,99.50
2018-06-23T08:55:32.600Z,98.90
2018-06-23T08:58:02.228Z,98.20
2018-06-23T09:00:30.853Z,97.00
2018-06-23T09:02:59.436Z,96.60
2018-06-23T09:05:28.290Z,96.00
2018-06-23T09:07:56.847Z,96.00
2018-06-23T09:10:25.405Z,95.30
2018-06-23T09:12:54.118Z,94.90
2018-06-23T09:15:22.697Z,94.90
2018-06-23T09:17:52.135Z,95.00
2018-06-23T09:20:22.249Z,94.10
2018-06-23T09:22:54.510Z,94.90
2018-06-23T09:25:26.492Z,94.90
2018-06-23T09:27:58.866Z,95.00
2018-06-23T09:30:28.447Z,95.20
2018-06-23T09:32:57.399Z,95.80
2018-06-23T09:35:29.554Z,96.40
2018-06-23T09:37:58.301Z,97.00
2018-06-23T09:40:27.769Z,97.30
2018-06-23T09:45:24.425Z,97.50
2018-06-23T09:47:57.268Z,96.70
2018-06-23T09:50:28.999Z,96.80
2018-06-23T09:52:57.810Z,96.00
2018-06-23T09:55:28.627Z,95.70
2018-06-23T09:57:57.226Z,94.50
2018-06-23T10:00:28.539Z,93.80
2018-06-23T10:03:04.064Z,93.30
2018-06-23T10:05:34.325Z,93.20
2018-06-23T10:08:08.608Z,94.30
2018-06-23T10:13:21.705Z,95.30
2018-06-23T10:15:53.445Z,95.80
2018-06-23T10:18:45.375Z,95.70
2018-06-23T10:21:25.602Z,96.70
2018-06-23T10:24:03.614Z,97.30
2018-06-23T10:26:33.523Z,97.30
2018-06-23T10:29:14.504Z,97.50
2018-06-23T10:31:47.624Z,97.20
2018-06-23T10:34:17.316Z,96.70
2018-06-23T10:36:50.529Z,96.50
2018-06-23T10:39:23.672Z,96.00
2018-06-23T10:41:52.217Z,95.50
2018-06-23T10:44:22.025Z,95.30
2018-06-23T10:46:50.723Z,95.20
2018-06-23T10:49:20.653Z,94.70
2018-06-23T10:51:52.417Z,94.80
2018-06-23T11:49:02.216Z,92.60
2018-06-23T11:51:36.773Z,92.60
2018-06-23T11:54:33.195Z,92.30
2018-06-23T11:57:04.072Z,92.60
2018-06-23T11:59:34.809Z,93.20
2018-06-23T12:02:16.857Z,93.10
2018-06-23T12:04:52.183Z,93.50
2018-06-23T12:07:25.003Z,93.60
2018-06-23T12:09:57.334Z,93.60
2018-06-23T12:15:28.493Z,93.90
2018-06-23T12:17:59.156Z,94.00
2018-06-23T12:20:38.578Z,94.20
2018-06-23T12:23:13.542Z,94.60
2018-06-23T12:28:28.266Z,94.70
2018-06-23T12:30:59.082Z,94.70
2018-06-23T12:41:01.148Z,95.40
2018-06-23T12:43:29.418Z,94.10
2018-06-23T12:45:57.766Z,93.50
2018-06-23T12:48:30.842Z,93.40
2018-06-23T12:50:59.361Z,93.00
2018-06-23T12:53:28.685Z,93.60
2018-06-23T12:55:57.214Z,93.60
2018-06-23T12:58:25.810Z,93.10
2018-06-23T13:00:54.566Z,93.30
2018-06-23T13:03:23.009Z,93.30
2018-06-23T13:05:51.357Z,92.70
2018-06-23T13:08:29.968Z,93.00
2018-06-23T13:10:59.447Z,92.90
2018-06-23T13:13:29.765Z,92.50
2018-06-23T13:16:00.502Z,92.50
2018-06-23T13:18:29.769Z,93.00
2018-06-23T13:20:58.439Z,91.80
2018-06-23T13:23:30.217Z,91.80
2018-06-23T13:25:58.969Z,91.50
2018-06-23T13:28:29.996Z,92.70
2018-06-23T13:30:59.535Z,92.30
2018-06-23T13:33:28.217Z,91.50
2018-06-23T13:35:56.725Z,90.00
2018-06-23T13:38:25.584Z,90.60
2018-06-23T13:41:01.353Z,90.70
2018-06-23T13:43:31.493Z,91.40
2018-06-23T13:46:00.085Z,91.90
2018-06-23T13:48:28.476Z,91.30
2018-06-23T13:50:57.105Z,91.40
2018-06-23T13:53:25.605Z,90.50
2018-06-23T13:55:54.610Z,90.30
2018-06-23T13:58:24.531Z,91.20
2018-06-23T14:00:52.980Z,91.20
2018-06-23T14:03:22.531Z,90.80
2018-06-23T14:05:51.769Z,90.60
2018-06-23T14:08:20.441Z,91.10
2018-06-23T14:10:48.883Z,90.60
2018-06-23T14:13:17.349Z,90.50
2018-06-23T14:15:45.836Z,90.90
2018-06-23T14:18:14.333Z,91.60
2018-06-23T14:20:42.775Z,92.20
2018-06-23T14:23:11.402Z,91.30
2018-06-23T14:25:40.191Z,91.40
2018-06-23T14:28:09.966Z,90.20
2018-06-23T14:30:42.500Z,90.10
2018-06-23T14:33:11.630Z,90.90
2018-06-23T14:35:40.958Z,91.30
2018-06-23T14:38:11.450Z,87.30
2018-06-23T14:40:41.418Z,83.20
2018-06-23T14:43:10.041Z,79.30
2018-06-23T14:45:38.473Z,78.90
2018-06-23T14:48:06.858Z,77.90
2018-06-23T14:50:35.221Z,77.70
2018-06-23T14:53:03.883Z,79.60
2018-06-23T14:55:32.226Z,82.30
2018-06-23T14:58:01.086Z,83.20
2018-06-23T15:00:30.103Z,84.60
2018-06-23T15:02:58.525Z,83.80
2018-06-23T15:05:27.943Z,83.70
2018-06-23T15:08:06.846Z,86.40
2018-06-23T15:10:46.538Z,88.00
2018-06-23T15:13:17.049Z,87.90
2018-06-23T15:15:46.252Z,87.10
2018-06-23T15:18:14.630Z,87.40
2018-06-23T15:20:43.719Z,88.70
2018-06-23T15:23:13.102Z,89.00
2018-06-23T15:25:42.003Z,89.80
2018-06-23T15:28:11.015Z,90.10
2018-06-23T15:30:39.887Z,90.30
2018-06-23T15:33:08.391Z,90.10
2018-06-23T15:35:37.086Z,90.00
2018-06-23T15:38:05.720Z,90.60
2018-06-23T15:40:34.194Z,90.70
2018-06-23T15:43:02.853Z,90.90
2018-06-23T15:45:31.397Z,90.60
2018-06-23T15:47:59.842Z,90.50
2018-06-23T15:50:28.348Z,90.70
2018-06-23T15:52:57.319Z,90.50
2018-06-23T15:55:25.927Z,90.00
2018-06-23T15:57:54.410Z,89.60
2018-06-23T16:00:23.326Z,87.80
2018-06-23T16:02:51.760Z,83.80
2018-06-23T16:05:20.298Z,82.50
2018-06-23T16:07:48.692Z,80.40
2018-06-23T16:10:23.209Z,75.70
2018-06-23T16:12:51.835Z,75.10
2018-06-23T16:15:20.306Z,75.70
2018-06-23T16:17:48.970Z,78.50
2018-06-23T16:20:17.501Z,80.40
2018-06-23T16:22:46.922Z,80.70
2018-06-23T16:25:15.633Z,77.80
2018-06-23T16:27:44.197Z,79.30
2018-06-23T16:30:12.694Z,80.50
2018-06-23T16:32:41.312Z,81.50
2018-06-23T16:35:10.300Z,83.50
2018-06-23T16:37:38.410Z,84.50
2018-06-23T16:40:07.350Z,86.40
2018-06-23T16:42:35.829Z,85.70
2018-06-23T16:45:04.577Z,85.50
2018-06-23T16:47:33.149Z,85.30
2018-06-23T16:50:02.088Z,86.50
2018-06-23T16:52:30.536Z,87.30
2018-06-23T16:54:59.151Z,86.30
2018-06-23T16:57:28.105Z,87.20
2018-06-23T16:59:56.454Z,86.80
2018-06-23T17:02:24.900Z,86.10
2018-06-23T17:04:53.293Z,85.80
2018-06-23T17:07:21.877Z,85.40
2018-06-23T17:09:52.570Z,83.80
2018-06-23T17:12:21.334Z,82.70
2018-06-23T17:14:51.677Z,84.10
2018-06-23T17:17:20.181Z,85.50
2018-06-23T17:19:49.995Z,85.50
2018-06-23T17:22:18.528Z,85.80
2018-06-23T17:24:47.123Z,87.50
2018-06-23T17:27:15.982Z,86.10
2018-06-23T17:32:12.827Z,85.50
2018-06-23T17:34:41.212Z,84.90
2018-06-23T17:37:09.809Z,84.30
2018-06-23T17:39:38.191Z,84.20
2018-06-23T17:42:06.585Z,84.60
2018-06-23T17:44:35.288Z,85.80
2018-06-23T17:47:03.722Z,86.00
2018-06-23T17:49:32.029Z,86.60
2018-06-23T17:52:00.374Z,87.10
2018-06-23T17:54:28.751Z,87.00
2018-06-23T17:56:57.144Z,87.60
2018-06-23T17:59:25.516Z,88.60
2018-06-23T18:01:53.925Z,88.30
2018-06-23T18:04:22.341Z,88.60
2018-06-23T18:06:50.879Z,87.70
2018-06-23T18:09:19.281Z,86.90
2018-06-23T18:11:47.616Z,85.60
2018-06-23T18:14:16.259Z,83.00
2018-06-23T18:16:44.653Z,79.60
2018-06-23T18:19:12.980Z,79.70
2018-06-23T18:21:41.356Z,82.30
2018-06-23T18:24:09.707Z,84.00
2018-06-23T18:26:38.097Z,82.30
2018-06-23T18:29:06.457Z,79.80
2018-06-23T18:31:34.879Z,78.90
2018-06-23T18:34:03.226Z,78.20
2018-06-23T18:36:31.590Z,78.70
